Seizan Maru — JD3025 — position and weather

sailwx.info

Track history (hours):
 
Tides and Currents Weather Stations Pressure Air Temp Water Temp Dewpoint Dewpoint Depression Visibility Wind Speed Wind Dir Waves Ship Positions

Seizan Maru

Last reported at 2018-Jul-19 18:21 UTC. Time now 2018-Jul-19 19:29 UTC.
Position N 34°36' E 135°23'.

Length 74 m.

Type: Cargo ship. MMSI: 431001149.

Date/timePositionNaut miles runAvg speedWind from/ knotsBaromVisibWave heightAir tempDewpointWater temp
2018-Jul-19 18:21N 34°36' E 135°23'0 0.0
2018-Jul-19 17:09N 34°36' E 135°23'0 0.0
2018-Jul-19 15:27N 34°36' E 135°23'0 0.0
2018-Jul-19 14:57N 34°36' E 135°23'0 0.1
2018-Jul-19 12:39N 34°36' E 135°22'311.5
2018-Jul-19 12:22N 34°33' E 135°19'512.0
2018-Jul-19 11:58N 34°30' E 135°15'1011.8
2018-Jul-19 11:06N 34°22' E 135°07'112.1
2018-Jul-19 10:59N 34°21' E 135°06'511.0
2018-Jul-19 10:31N 34°16' E 135°03'611.6
2018-Jul-19 10:00N 34°11' E 135°03'812.1
2018-Jul-19 09:21N 34°03' E 135°02'  
Track history (hours):
 
Tides and Currents Weather Stations Pressure Air Temp Water Temp Dewpoint Dewpoint Depression Visibility Wind Speed Wind Dir Waves Ship Positions

Seizan Maru

Last reported at 2018-Jul-19 18:21 UTC. Time now 2018-Jul-19 19:29 UTC.
Position N 34°36' E 135°23'.

Length 74 m.

Type: Cargo ship. MMSI: 431001149.

Date/timePositionNaut miles runAvg speedWind from/ knotsBaromVisibWave heightAir tempDewpointWater temp
2018-Jul-19 18:21N 34°36' E 135°23'0 0.0
2018-Jul-19 17:09N 34°36' E 135°23'0 0.0
2018-Jul-19 15:27N 34°36' E 135°23'0 0.0
2018-Jul-19 14:57N 34°36' E 135°23'0 0.1
2018-Jul-19 12:39N 34°36' E 135°22'311.5
2018-Jul-19 12:22N 34°33' E 135°19'512.0
2018-Jul-19 11:58N 34°30' E 135°15'1011.8
2018-Jul-19 11:06N 34°22' E 135°07'112.1
2018-Jul-19 10:59N 34°21' E 135°06'511.0
2018-Jul-19 10:31N 34°16' E 135°03'611.6
2018-Jul-19 10:00N 34°11' E 135°03'812.1
2018-Jul-19 09:21N 34°03' E 135°02'  

Dump ship's entire track history